TAIP55 YCBG-YCBG
Flight info
| Callsign | TAIP55 |
|---|---|
| Flight time | 0h 17m |
| Altitude | 1500 |
| Route | YCBC-VFR |
| Aircraft | EC45/L-G/C |
Departure
| Time | 2026-04-23 09:48 |
|---|---|
| Airport | Cambridge Aerodrome (YCBG) |
Arrival
| Time | 2026-04-23 10:05 |
|---|---|
| Airport | Cambridge Aerodrome (YCBG) |
| Time | Latitude | Longitude | Altitude | Speed | Heading |
|---|---|---|---|---|---|
| 2026-04-23 09:30 | -42.82929 | 147.47665 | 67 ft | 0 kts | 340° |
| 2026-04-23 09:39 | -42.82917 | 147.47672 | 68 ft | 6 kts | 355° |
| 2026-04-23 09:39 | -42.82904 | 147.47716 | 77 ft | 7 kts | 110° |
| 2026-04-23 09:39 | -42.82921 | 147.47776 | 81 ft | 2 kts | 34° |
| 2026-04-23 09:40 | -42.82922 | 147.47775 | 81 ft | 0 kts | 61° |
| 2026-04-23 09:46 | -42.82922 | 147.47783 | 82 ft | 4 kts | 71° |
| 2026-04-23 09:46 | -42.82937 | 147.47852 | 80 ft | 10 kts | 80° |
| 2026-04-23 09:46 | -42.82954 | 147.47952 | 79 ft | 12 kts | 83° |
| 2026-04-23 09:46 | -42.82959 | 147.48058 | 85 ft | 14 kts | 96° |
| 2026-04-23 09:47 | -42.83004 | 147.48256 | 85 ft | 21 kts | 88° |
| 2026-04-23 09:47 | -42.82987 | 147.48338 | 90 ft | 10 kts | 10° |
| 2026-04-23 09:47 | -42.82876 | 147.48132 | 167 ft | 59 kts | 284° |
| 2026-04-23 09:47 | -42.82717 | 147.47391 | 267 ft | 99 kts | 285° |
| 2026-04-23 09:48 | -42.82434 | 147.46446 | 352 ft | 114 kts | 302° |
| 2026-04-23 09:48 | -42.81821 | 147.45819 | 633 ft | 111 kts | 330° |
| 2026-04-23 09:48 | -42.81077 | 147.45429 | 728 ft | 123 kts | 339° |
| 2026-04-23 09:48 | -42.80219 | 147.45070 | 744 ft | 133 kts | 342° |
| 2026-04-23 09:49 | -42.79321 | 147.45196 | 773 ft | 139 kts | 26° |
| 2026-04-23 09:49 | -42.78792 | 147.46293 | 678 ft | 142 kts | 80° |
| 2026-04-23 09:49 | -42.79064 | 147.47430 | 964 ft | 119 kts | 135° |
| 2026-04-23 09:49 | -42.79731 | 147.48076 | 1162 ft | 118 kts | 150° |
| 2026-04-23 09:50 | -42.80471 | 147.48601 | 1267 ft | 122 kts | 157° |
| 2026-04-23 09:50 | -42.81262 | 147.49022 | 1229 ft | 122 kts | 162° |
| 2026-04-23 09:50 | -42.82065 | 147.49445 | 1063 ft | 127 kts | 153° |
| 2026-04-23 09:50 | -42.82743 | 147.50139 | 999 ft | 116 kts | 140° |
| 2026-04-23 09:51 | -42.83301 | 147.50858 | 946 ft | 107 kts | 139° |
| 2026-04-23 09:51 | -42.83838 | 147.51507 | 953 ft | 102 kts | 142° |
| 2026-04-23 09:51 | -42.84403 | 147.52106 | 963 ft | 103 kts | 146° |
| 2026-04-23 09:51 | -42.84974 | 147.52662 | 973 ft | 100 kts | 140° |
| 2026-04-23 09:52 | -42.85304 | 147.53509 | 966 ft | 106 kts | 101° |
| 2026-04-23 09:52 | -42.85189 | 147.54480 | 970 ft | 105 kts | 62° |
| 2026-04-23 09:52 | -42.84669 | 147.55142 | 970 ft | 103 kts | 23° |
| 2026-04-23 09:52 | -42.83977 | 147.55220 | 971 ft | 100 kts | 343° |
| 2026-04-23 09:53 | -42.83422 | 147.54696 | 969 ft | 98 kts | 304° |
| 2026-04-23 09:53 | -42.83256 | 147.53821 | 970 ft | 98 kts | 265° |
| 2026-04-23 09:53 | -42.83414 | 147.52920 | 972 ft | 96 kts | 258° |
| 2026-04-23 09:53 | -42.83283 | 147.52036 | 981 ft | 98 kts | 293° |
| 2026-04-23 09:54 | -42.82973 | 147.51216 | 970 ft | 97 kts | 299° |
| 2026-04-23 09:54 | -42.82594 | 147.50450 | 969 ft | 97 kts | 306° |
| 2026-04-23 09:54 | -42.82150 | 147.49749 | 971 ft | 98 kts | 312° |
| 2026-04-23 09:54 | -42.81647 | 147.49120 | 970 ft | 98 kts | 319° |
| 2026-04-23 09:55 | -42.81100 | 147.48582 | 971 ft | 99 kts | 325° |
| 2026-04-23 09:55 | -42.80606 | 147.48008 | 963 ft | 93 kts | 305° |
| 2026-04-23 09:55 | -42.80398 | 147.47140 | 972 ft | 98 kts | 272° |
| 2026-04-23 09:55 | -42.80567 | 147.46261 | 968 ft | 97 kts | 241° |
| 2026-04-23 09:56 | -42.81063 | 147.45636 | 969 ft | 100 kts | 209° |
| 2026-04-23 09:56 | -42.81725 | 147.45364 | 969 ft | 99 kts | 197° |
| 2026-04-23 09:56 | -42.82393 | 147.45123 | 970 ft | 100 kts | 197° |
| 2026-04-23 09:56 | -42.83071 | 147.44915 | 972 ft | 101 kts | 183° |
| 2026-04-23 09:57 | -42.83623 | 147.45425 | 971 ft | 102 kts | 117° |
| 2026-04-23 09:57 | -42.83866 | 147.46343 | 968 ft | 105 kts | 107° |
| 2026-04-23 09:57 | -42.84084 | 147.47286 | 971 ft | 104 kts | 108° |
| 2026-04-23 09:57 | -42.84311 | 147.48226 | 968 ft | 104 kts | 109° |
| 2026-04-23 09:58 | -42.84545 | 147.49162 | 971 ft | 104 kts | 109° |
| 2026-04-23 09:58 | -42.84786 | 147.50092 | 971 ft | 104 kts | 110° |
| 2026-04-23 09:58 | -42.85009 | 147.51016 | 969 ft | 105 kts | 99° |
| 2026-04-23 09:58 | -42.84825 | 147.51953 | 968 ft | 104 kts | 52° |
| 2026-04-23 09:59 | -42.84213 | 147.52418 | 970 ft | 102 kts | 5° |
| 2026-04-23 09:59 | -42.83568 | 147.52136 | 971 ft | 99 kts | 317° |
| 2026-04-23 09:59 | -42.83249 | 147.51330 | 972 ft | 97 kts | 289° |
| 2026-04-23 09:59 | -42.83021 | 147.50470 | 970 ft | 96 kts | 289° |
| 2026-04-23 10:00 | -42.82792 | 147.49610 | 970 ft | 97 kts | 289° |
| 2026-04-23 10:00 | -42.82562 | 147.48750 | 970 ft | 97 kts | 289° |
| 2026-04-23 10:00 | -42.82329 | 147.47891 | 968 ft | 97 kts | 289° |
| 2026-04-23 10:00 | -42.82093 | 147.47033 | 971 ft | 97 kts | 289° |
| 2026-04-23 10:01 | -42.81935 | 147.46464 | 970 ft | 97 kts | 290° |
| 2026-04-23 10:01 | -42.81709 | 147.45606 | 981 ft | 92 kts | 279° |
| 2026-04-23 10:01 | -42.81966 | 147.44813 | 969 ft | 101 kts | 219° |
| 2026-04-23 10:01 | -42.82635 | 147.44723 | 970 ft | 103 kts | 160° |
| 2026-04-23 10:02 | -42.83239 | 147.45720 | 971 ft | 105 kts | 123° |
| 2026-04-23 10:02 | -42.83498 | 147.46291 | 970 ft | 105 kts | 122° |
| 2026-04-23 10:02 | -42.83854 | 147.47167 | 970 ft | 105 kts | 114° |
| 2026-04-23 10:02 | -42.84095 | 147.48097 | 969 ft | 105 kts | 111° |
| 2026-04-23 10:03 | -42.84371 | 147.49020 | 971 ft | 105 kts | 115° |
| 2026-04-23 10:03 | -42.84688 | 147.49919 | 969 ft | 105 kts | 118° |
| 2026-04-23 10:03 | -42.84915 | 147.50842 | 969 ft | 104 kts | 88° |
| 2026-04-23 10:03 | -42.84585 | 147.51596 | 976 ft | 87 kts | 27° |
| 2026-04-23 10:04 | -42.84097 | 147.51539 | 963 ft | 70 kts | 317° |
| 2026-04-23 10:04 | -42.83861 | 147.50958 | 972 ft | 80 kts | 294° |
| 2026-04-23 10:04 | -42.83589 | 147.50232 | 691 ft | 89 kts | 299° |
| 2026-04-23 10:04 | -42.83273 | 147.49554 | 390 ft | 79 kts | 299° |
| 2026-04-23 10:05 | -42.83061 | 147.48930 | 172 ft | 67 kts | 288° |
| 2026-04-23 10:05 | -42.82965 | 147.48378 | 97 ft | 50 kts | 285° |
| 2026-04-23 10:05 | -42.82914 | 147.48128 | 75 ft | 12 kts | 284° |
| 2026-04-23 10:05 | -42.82894 | 147.48016 | 84 ft | 5 kts | 286° |
| 2026-04-23 10:06 | -42.82875 | 147.47931 | 93 ft | 17 kts | 283° |
| 2026-04-23 10:06 | -42.82880 | 147.47823 | 101 ft | 15 kts | 218° |
| 2026-04-23 10:06 | -42.82932 | 147.47708 | 99 ft | 9 kts | 232° |
| 2026-04-23 10:06 | -42.82923 | 147.47664 | 61 ft | 0 kts | 228° |
| 2026-04-23 10:15 | -42.82924 | 147.47664 | 61 ft | 0 kts | 234° |
| 2026-04-23 10:15 | -42.82925 | 147.47653 | 61 ft | 4 kts | 317° |
| 2026-04-23 10:16 | -42.82903 | 147.47647 | 67 ft | 5 kts | 92° |
| 2026-04-23 10:16 | -42.82904 | 147.47669 | 70 ft | 7 kts | 108° |
| 2026-04-23 10:16 | -42.82914 | 147.47742 | 79 ft | 5 kts | 108° |
| 2026-04-23 10:16 | -42.82927 | 147.47837 | 85 ft | 11 kts | 108° |
| 2026-04-23 10:17 | -42.82953 | 147.47963 | 80 ft | 17 kts | 108° |
| 2026-04-23 10:17 | -42.82995 | 147.48144 | 70 ft | 23 kts | 106° |
| 2026-04-23 10:17 | -42.83015 | 147.48275 | 59 ft | 4 kts | 109° |
| 2026-04-23 10:17 | -42.83030 | 147.48340 | 61 ft | 4 kts | 108° |
| 2026-04-23 10:18 | -42.83050 | 147.48385 | 57 ft | 13 kts | 42° |
| 2026-04-23 10:18 | -42.82985 | 147.48412 | 64 ft | 14 kts | 280° |
| 2026-04-23 10:18 | -42.82956 | 147.48308 | 63 ft | 2 kts | 254° |
| 2026-04-23 10:18 | -42.82957 | 147.48308 | 63 ft | 0 kts | 286° |
| 2026-04-23 10:19 | -42.82939 | 147.48245 | 91 ft | 20 kts | 287° |
| 2026-04-23 10:19 | -42.82865 | 147.47916 | 165 ft | 54 kts | 282° |
| 2026-04-23 10:19 | -42.82744 | 147.47266 | 261 ft | 84 kts | 283° |
| 2026-04-23 10:19 | -42.82547 | 147.46452 | 393 ft | 97 kts | 290° |
| 2026-04-23 10:20 | -42.82171 | 147.45668 | 647 ft | 101 kts | 319° |
| 2026-04-23 10:20 | -42.81497 | 147.45447 | 780 ft | 101 kts | 4° |
| 2026-04-23 10:20 | -42.80923 | 147.45914 | 749 ft | 96 kts | 52° |
| 2026-04-23 10:20 | -42.80792 | 147.46756 | 731 ft | 94 kts | 104° |
| 2026-04-23 10:21 | -42.81013 | 147.47618 | 728 ft | 97 kts | 112° |
| 2026-04-23 10:21 | -42.81320 | 147.48436 | 726 ft | 97 kts | 129° |
| 2026-04-23 10:21 | -42.81817 | 147.49066 | 720 ft | 100 kts | 143° |
| 2026-04-23 10:21 | -42.82404 | 147.49612 | 719 ft | 104 kts | 151° |
| 2026-04-23 10:22 | -42.83061 | 147.50055 | 719 ft | 106 kts | 159° |
| 2026-04-23 10:22 | -42.83768 | 147.50377 | 720 ft | 108 kts | 167° |
| 2026-04-23 10:22 | -42.84506 | 147.50568 | 721 ft | 109 kts | 175° |
| 2026-04-23 10:22 | -42.85262 | 147.50625 | 719 ft | 109 kts | 182° |
| 2026-04-23 10:23 | -42.86012 | 147.50593 | 718 ft | 111 kts | 180° |
| 2026-04-23 10:23 | -42.86798 | 147.50758 | 719 ft | 114 kts | 168° |
| 2026-04-23 10:23 | -42.87573 | 147.50885 | 719 ft | 114 kts | 184° |
| 2026-04-23 10:23 | -42.88343 | 147.50649 | 717 ft | 114 kts | 201° |
| 2026-04-23 10:24 | -42.89075 | 147.50247 | 721 ft | 112 kts | 205° |
| 2026-04-23 10:24 | -42.89773 | 147.49785 | 720 ft | 110 kts | 209° |
| 2026-04-23 10:24 | -42.90435 | 147.49266 | 721 ft | 109 kts | 213° |
| 2026-04-23 10:24 | -42.91063 | 147.48686 | 721 ft | 108 kts | 218° |
| 2026-04-23 10:25 | -42.91707 | 147.48135 | 719 ft | 110 kts | 210° |
| 2026-04-23 10:25 | -42.92397 | 147.47682 | 720 ft | 110 kts | 206° |
| 2026-04-23 10:25 | -42.93116 | 147.47368 | 724 ft | 106 kts | 196° |
| 2026-04-23 10:25 | -42.93765 | 147.46998 | 721 ft | 99 kts | 219° |
| 2026-04-23 10:26 | -42.94250 | 147.46368 | 724 ft | 93 kts | 228° |
| 2026-04-23 10:26 | -42.94689 | 147.45748 | 723 ft | 88 kts | 227° |
| 2026-04-23 10:26 | -42.95159 | 147.45303 | 723 ft | 78 kts | 205° |
| 2026-04-23 10:26 | -42.95668 | 147.45195 | 722 ft | 72 kts | 178° |
| 2026-04-23 10:27 | -42.96134 | 147.45394 | 719 ft | 70 kts | 158° |
| 2026-04-23 10:27 | -42.96560 | 147.45726 | 719 ft | 71 kts | 148° |
| 2026-04-23 10:27 | -42.96946 | 147.46155 | 719 ft | 72 kts | 137° |
| 2026-04-23 10:27 | -42.97278 | 147.46666 | 720 ft | 72 kts | 129° |
| 2026-04-23 10:28 | -42.97549 | 147.47249 | 721 ft | 73 kts | 120° |
| 2026-04-23 10:28 | -42.97752 | 147.47887 | 720 ft | 74 kts | 110° |
| 2026-04-23 10:28 | -42.97878 | 147.48563 | 720 ft | 74 kts | 101° |
| 2026-04-23 10:28 | -42.97926 | 147.49261 | 719 ft | 74 kts | 91° |
| 2026-04-23 10:29 | -42.97893 | 147.49961 | 719 ft | 74 kts | 81° |
| 2026-04-23 10:29 | -42.97783 | 147.50634 | 720 ft | 74 kts | 72° |
| 2026-04-23 10:29 | -42.97598 | 147.51283 | 719 ft | 73 kts | 63° |
| 2026-04-23 10:29 | -42.97342 | 147.51886 | 721 ft | 73 kts | 53° |
| 2026-04-23 10:30 | -42.97021 | 147.52423 | 723 ft | 73 kts | 44° |
| 2026-04-23 10:30 | -42.96644 | 147.52879 | 722 ft | 72 kts | 33° |
| 2026-04-23 10:30 | -42.96191 | 147.53084 | 723 ft | 66 kts | 359° |
| 2026-04-23 10:30 | -42.95761 | 147.53051 | 721 ft | 58 kts | 351° |
| 2026-04-23 10:31 | -42.95376 | 147.52981 | 721 ft | 53 kts | 348° |
| 2026-04-23 10:31 | -42.95023 | 147.52897 | 720 ft | 50 kts | 345° |
| 2026-04-23 10:31 | -42.94695 | 147.52799 | 719 ft | 47 kts | 342° |
| 2026-04-23 10:31 | -42.94387 | 147.52685 | 722 ft | 45 kts | 339° |
| 2026-04-23 10:32 | -42.94096 | 147.52553 | 720 ft | 43 kts | 336° |
| 2026-04-23 10:32 | -42.93821 | 147.52404 | 720 ft | 40 kts | 336° |
| 2026-04-23 10:32 | -42.93654 | 147.52308 | 713 ft | 12 kts | 337° |
| 2026-04-23 10:32 | -42.93635 | 147.52298 | 715 ft | 0 kts | 336° |
| 2026-04-23 10:33 | -42.93635 | 147.52300 | 717 ft | 0 kts | 336° |
| 2026-04-23 10:36 | -42.93534 | 147.52286 | 723 ft | 33 kts | 334° |
| 2026-04-23 10:36 | -42.93215 | 147.52179 | 721 ft | 70 kts | 338° |
| 2026-04-23 10:37 | -42.92624 | 147.51946 | 711 ft | 104 kts | 340° |
| 2026-04-23 10:37 | -42.91901 | 147.51682 | 733 ft | 102 kts | 342° |
| 2026-04-23 10:37 | -42.91233 | 147.51448 | 718 ft | 100 kts | 343° |
| 2026-04-23 10:37 | -42.90555 | 147.51226 | 720 ft | 100 kts | 345° |
| 2026-04-23 10:38 | -42.89876 | 147.51015 | 722 ft | 100 kts | 345° |
| 2026-04-23 10:38 | -42.89195 | 147.50815 | 720 ft | 100 kts | 346° |
| 2026-04-23 10:38 | -42.88503 | 147.50674 | 797 ft | 103 kts | 356° |
| 2026-04-23 10:38 | -42.87791 | 147.50817 | 803 ft | 103 kts | 6° |
| 2026-04-23 10:39 | -42.87090 | 147.50864 | 807 ft | 99 kts | 359° |
| 2026-04-23 10:39 | -42.86406 | 147.50876 | 809 ft | 97 kts | 359° |
| 2026-04-23 10:39 | -42.85734 | 147.50885 | 831 ft | 96 kts | 358° |
| 2026-04-23 10:39 | -42.85083 | 147.50888 | 905 ft | 90 kts | 357° |
| 2026-04-23 10:40 | -42.84523 | 147.50690 | 1010 ft | 78 kts | 329° |
| 2026-04-23 10:40 | -42.84103 | 147.50327 | 929 ft | 67 kts | 340° |
| 2026-04-23 10:40 | -42.83654 | 147.50239 | 653 ft | 64 kts | 356° |
| 2026-04-23 10:40 | -42.83200 | 147.50205 | 635 ft | 74 kts | 352° |
| 2026-04-23 10:41 | -42.82629 | 147.50118 | 559 ft | 91 kts | 349° |
| 2026-04-23 10:41 | -42.81980 | 147.50009 | 525 ft | 95 kts | 351° |
| 2026-04-23 10:41 | -42.81313 | 147.49935 | 513 ft | 97 kts | 354° |
| 2026-04-23 10:41 | -42.80629 | 147.50017 | 435 ft | 104 kts | 16° |
| 2026-04-23 10:42 | -42.80022 | 147.50592 | 367 ft | 113 kts | 47° |
| 2026-04-23 10:42 | -42.79644 | 147.51558 | 424 ft | 115 kts | 66° |
| 2026-04-23 10:42 | -42.79344 | 147.52543 | 535 ft | 111 kts | 68° |
| 2026-04-23 10:42 | -42.79068 | 147.53506 | 644 ft | 106 kts | 73° |
| 2026-04-23 10:43 | -42.79148 | 147.54433 | 784 ft | 99 kts | 116° |
| 2026-04-23 10:43 | -42.79543 | 147.55232 | 789 ft | 105 kts | 129° |
| 2026-04-23 10:43 | -42.79991 | 147.56037 | 810 ft | 108 kts | 127° |
| 2026-04-23 10:43 | -42.80425 | 147.56881 | 817 ft | 110 kts | 125° |
| 2026-04-23 10:44 | -42.80844 | 147.57757 | 848 ft | 110 kts | 124° |
| 2026-04-23 10:44 | -42.81438 | 147.58339 | 887 ft | 105 kts | 165° |
| 2026-04-23 10:44 | -42.82138 | 147.58256 | 913 ft | 101 kts | 207° |
| 2026-04-23 10:44 | -42.82711 | 147.57700 | 938 ft | 101 kts | 219° |
| 2026-04-23 10:45 | -42.83204 | 147.57053 | 1047 ft | 96 kts | 234° |
| 2026-04-23 10:45 | -42.83502 | 147.56246 | 1126 ft | 98 kts | 254° |
| 2026-04-23 10:45 | -42.83634 | 147.55297 | 1139 ft | 105 kts | 264° |
| 2026-04-23 10:45 | -42.83639 | 147.54281 | 1112 ft | 109 kts | 274° |
| 2026-04-23 10:46 | -42.83518 | 147.53258 | 1069 ft | 112 kts | 281° |
| 2026-04-23 10:46 | -42.83384 | 147.52567 | 1060 ft | 109 kts | 290° |
| 2026-04-23 10:46 | -42.82677 | 147.51804 | 1224 ft | 97 kts | 349° |
| 2026-04-23 10:46 | -42.81967 | 147.51866 | 1176 ft | 110 kts | 6° |
| 2026-04-23 10:47 | -42.81185 | 147.52096 | 1047 ft | 119 kts | 13° |
| 2026-04-23 10:47 | -42.80378 | 147.52468 | 891 ft | 125 kts | 19° |
| 2026-04-23 10:47 | -42.79883 | 147.52851 | 910 ft | 118 kts | 35° |
| 2026-04-23 10:47 | -42.79272 | 147.53589 | 912 ft | 118 kts | 41° |
| 2026-04-23 10:48 | -42.78682 | 147.54375 | 857 ft | 119 kts | 44° |
| 2026-04-23 10:48 | -42.78118 | 147.55203 | 799 ft | 120 kts | 47° |
| 2026-04-23 10:48 | -42.77781 | 147.56157 | 899 ft | 107 kts | 84° |
| 2026-04-23 10:48 | -42.77987 | 147.57046 | 1045 ft | 96 kts | 132° |
| 2026-04-23 10:49 | -42.78538 | 147.57387 | 1188 ft | 87 kts | 184° |
| 2026-04-23 10:49 | -42.79034 | 147.57030 | 1308 ft | 84 kts | 228° |
| 2026-04-23 10:49 | -42.79449 | 147.56399 | 1344 ft | 94 kts | 231° |
| 2026-04-23 10:49 | -42.79870 | 147.55673 | 1370 ft | 101 kts | 234° |
| 2026-04-23 10:50 | -42.80416 | 147.54599 | 1356 ft | 105 kts | 238° |
| 2026-04-23 10:50 | -42.80674 | 147.54034 | 1335 ft | 107 kts | 240° |
| 2026-04-23 10:50 | -42.81024 | 147.53149 | 1350 ft | 102 kts | 249° |
| 2026-04-23 10:50 | -42.81127 | 147.52245 | 1468 ft | 93 kts | 270° |
| 2026-04-23 10:51 | -42.81126 | 147.51388 | 1593 ft | 89 kts | 272° |
| 2026-04-23 10:51 | -42.81097 | 147.50563 | 1727 ft | 86 kts | 274° |
| 2026-04-23 10:51 | -42.81039 | 147.49763 | 1815 ft | 84 kts | 276° |
| 2026-04-23 10:51 | -42.80971 | 147.48986 | 1723 ft | 81 kts | 276° |
| 2026-04-23 10:52 | -42.80905 | 147.48240 | 1625 ft | 78 kts | 276° |
| 2026-04-23 10:52 | -42.80841 | 147.47514 | 1483 ft | 76 kts | 276° |
| 2026-04-23 10:52 | -42.80781 | 147.46812 | 1366 ft | 75 kts | 276° |
| 2026-04-23 10:52 | -42.80725 | 147.46112 | 1233 ft | 74 kts | 276° |
| 2026-04-23 10:53 | -42.80672 | 147.45395 | 1024 ft | 82 kts | 275° |
| 2026-04-23 10:53 | -42.80627 | 147.44623 | 991 ft | 79 kts | 268° |
| 2026-04-23 10:53 | -42.80854 | 147.44007 | 1005 ft | 73 kts | 220° |
| 2026-04-23 10:53 | -42.81315 | 147.43844 | 1008 ft | 70 kts | 184° |
| 2026-04-23 10:54 | -42.81876 | 147.43968 | 1014 ft | 88 kts | 169° |
| 2026-04-23 10:54 | -42.82482 | 147.44038 | 1018 ft | 86 kts | 185° |
| 2026-04-23 10:54 | -42.83076 | 147.43969 | 1019 ft | 85 kts | 188° |
| 2026-04-23 10:54 | -42.83667 | 147.43934 | 1016 ft | 87 kts | 174° |
| 2026-04-23 10:55 | -42.84220 | 147.44276 | 1020 ft | 89 kts | 142° |
| 2026-04-23 10:55 | -42.84603 | 147.44940 | 1023 ft | 90 kts | 124° |
| 2026-04-23 10:55 | -42.84967 | 147.45623 | 1019 ft | 89 kts | 129° |
| 2026-04-23 10:55 | -42.85369 | 147.46265 | 1019 ft | 89 kts | 134° |
| 2026-04-23 10:56 | -42.85779 | 147.46887 | 1018 ft | 91 kts | 122° |
| 2026-04-23 10:56 | -42.85840 | 147.47713 | 1019 ft | 90 kts | 71° |
| 2026-04-23 10:56 | -42.85452 | 147.48363 | 1023 ft | 89 kts | 37° |
| 2026-04-23 10:56 | -42.84931 | 147.48791 | 1020 ft | 87 kts | 21° |
| 2026-04-23 10:57 | -42.84354 | 147.49051 | 1020 ft | 87 kts | 13° |
| 2026-04-23 10:57 | -42.83766 | 147.49256 | 1021 ft | 87 kts | 10° |
| 2026-04-23 10:57 | -42.83173 | 147.49419 | 1020 ft | 87 kts | 7° |
| 2026-04-23 10:57 | -42.82574 | 147.49540 | 1021 ft | 87 kts | 4° |
| 2026-04-23 10:58 | -42.81974 | 147.49616 | 1020 ft | 86 kts | 1° |
| 2026-04-23 10:58 | -42.81376 | 147.49648 | 1020 ft | 86 kts | 358° |
| 2026-04-23 10:58 | -42.80855 | 147.50009 | 1019 ft | 90 kts | 52° |
| 2026-04-23 10:58 | -42.80773 | 147.50826 | 1019 ft | 91 kts | 107° |
| 2026-04-23 10:59 | -42.81004 | 147.51618 | 1020 ft | 90 kts | 116° |
| 2026-04-23 10:59 | -42.81299 | 147.52369 | 1020 ft | 90 kts | 122° |
| 2026-04-23 10:59 | -42.81642 | 147.53060 | 1020 ft | 89 kts | 128° |
| 2026-04-23 10:59 | -42.82040 | 147.53705 | 1020 ft | 89 kts | 134° |
| 2026-04-23 11:00 | -42.82485 | 147.54289 | 1020 ft | 89 kts | 141° |
| 2026-04-23 11:00 | -42.82970 | 147.54805 | 1021 ft | 88 kts | 147° |
| 2026-04-23 11:00 | -42.83461 | 147.55303 | 1020 ft | 89 kts | 135° |
| 2026-04-23 11:00 | -42.83741 | 147.56047 | 1021 ft | 90 kts | 102° |
| 2026-04-23 11:01 | -42.83866 | 147.56881 | 1019 ft | 89 kts | 103° |
| 2026-04-23 11:01 | -42.84018 | 147.57701 | 1019 ft | 90 kts | 106° |
| 2026-04-23 11:01 | -42.84199 | 147.58516 | 1020 ft | 90 kts | 109° |
| 2026-04-23 11:01 | -42.84409 | 147.59316 | 1020 ft | 90 kts | 112° |
| 2026-04-23 11:02 | -42.84646 | 147.60102 | 1020 ft | 90 kts | 115° |
| 2026-04-23 11:02 | -42.84910 | 147.60869 | 1020 ft | 90 kts | 117° |
| 2026-04-23 11:02 | -42.85201 | 147.61620 | 1020 ft | 89 kts | 120° |
| 2026-04-23 11:02 | -42.85663 | 147.62123 | 1020 ft | 87 kts | 171° |
| 2026-04-23 11:03 | -42.86264 | 147.62195 | 1021 ft | 86 kts | 181° |
| 2026-04-23 11:03 | -42.86849 | 147.62179 | 1021 ft | 85 kts | 187° |
| 2026-04-23 11:03 | -42.87434 | 147.62075 | 1018 ft | 85 kts | 193° |
| 2026-04-23 11:03 | -42.88005 | 147.61879 | 1019 ft | 84 kts | 200° |
| 2026-04-23 11:04 | -42.88554 | 147.61592 | 1019 ft | 85 kts | 207° |
| 2026-04-23 11:04 | -42.89073 | 147.61217 | 1020 ft | 84 kts | 213° |
| 2026-04-23 11:04 | -42.89553 | 147.60764 | 1020 ft | 84 kts | 220° |
| 2026-04-23 11:04 | -42.89987 | 147.60236 | 1021 ft | 83 kts | 226° |
| 2026-04-23 11:05 | -42.90368 | 147.59649 | 1019 ft | 82 kts | 233° |
| 2026-04-23 11:05 | -42.90693 | 147.59007 | 1020 ft | 82 kts | 240° |
| 2026-04-23 11:05 | -42.90956 | 147.58316 | 1020 ft | 82 kts | 246° |
| 2026-04-23 11:05 | -42.91156 | 147.57586 | 1020 ft | 82 kts | 254° |
| 2026-04-23 11:06 | -42.91006 | 147.56158 | 1020 ft | 84 kts | 322° |
| 2026-04-23 11:06 | -42.90442 | 147.55958 | 1020 ft | 85 kts | 351° |
| 2026-04-23 11:06 | -42.89882 | 147.55737 | 1019 ft | 84 kts | 326° |
| 2026-04-23 11:07 | -42.89524 | 147.55143 | 1020 ft | 82 kts | 291° |
| 2026-04-23 11:07 | -42.89496 | 147.54380 | 1020 ft | 82 kts | 256° |
| 2026-04-23 11:07 | -42.89723 | 147.53664 | 1021 ft | 82 kts | 244° |
| 2026-04-23 11:07 | -42.89990 | 147.52976 | 1020 ft | 82 kts | 242° |
| 2026-04-23 11:08 | -42.90278 | 147.52298 | 1020 ft | 83 kts | 240° |
| 2026-04-23 11:08 | -42.90587 | 147.51632 | 1020 ft | 83 kts | 238° |
| 2026-04-23 11:08 | -42.90913 | 147.50987 | 1019 ft | 83 kts | 236° |
| 2026-04-23 11:08 | -42.91258 | 147.50355 | 1020 ft | 83 kts | 233° |
| 2026-04-23 11:09 | -42.91618 | 147.49744 | 1020 ft | 83 kts | 232° |
| 2026-04-23 11:09 | -42.91996 | 147.49150 | 1020 ft | 83 kts | 230° |
| 2026-04-23 11:09 | -42.92488 | 147.48760 | 1019 ft | 86 kts | 194° |
| 2026-04-23 11:09 | -42.93114 | 147.48651 | 1011 ft | 101 kts | 188° |
| 2026-04-23 11:10 | -42.93818 | 147.48579 | 1021 ft | 100 kts | 184° |
| 2026-04-23 11:10 | -42.94512 | 147.48573 | 1019 ft | 100 kts | 181° |
| 2026-04-23 11:10 | -42.95207 | 147.48628 | 1021 ft | 100 kts | 177° |
| 2026-04-23 11:10 | -42.95891 | 147.48747 | 1020 ft | 101 kts | 173° |
| 2026-04-23 11:11 | -42.96580 | 147.48934 | 1021 ft | 101 kts | 168° |
| 2026-04-23 11:11 | -42.97259 | 147.49189 | 1019 ft | 101 kts | 164° |
| 2026-04-23 11:11 | -42.97925 | 147.49511 | 1017 ft | 103 kts | 157° |
| 2026-04-23 11:11 | -42.98197 | 147.50360 | 1020 ft | 105 kts | 77° |
| 2026-04-23 11:12 | -42.97670 | 147.50918 | 1019 ft | 102 kts | 0° |
| 2026-04-23 11:12 | -42.96966 | 147.50829 | 1013 ft | 105 kts | 351° |
| 2026-04-23 11:12 | -42.96175 | 147.50663 | 1014 ft | 122 kts | 348° |
| 2026-04-23 11:12 | -42.95291 | 147.50565 | 1020 ft | 129 kts | 356° |
| 2026-04-23 11:13 | -42.94396 | 147.50567 | 1019 ft | 128 kts | 359° |
| 2026-04-23 11:13 | -42.93505 | 147.50628 | 1020 ft | 128 kts | 2° |
| 2026-04-23 11:13 | -42.92618 | 147.50747 | 1020 ft | 128 kts | 5° |
| 2026-04-23 11:13 | -42.91737 | 147.50917 | 1020 ft | 128 kts | 7° |
| 2026-04-23 11:14 | -42.90849 | 147.51055 | 1020 ft | 128 kts | 1° |
| 2026-04-23 11:14 | -42.89972 | 147.51020 | 1020 ft | 127 kts | 354° |
| 2026-04-23 11:14 | -42.89091 | 147.50922 | 1020 ft | 127 kts | 353° |
| 2026-04-23 11:14 | -42.88208 | 147.50820 | 1019 ft | 128 kts | 353° |
| 2026-04-23 11:15 | -42.87322 | 147.50718 | 1020 ft | 128 kts | 353° |
| 2026-04-23 11:15 | -42.86439 | 147.50613 | 1020 ft | 127 kts | 353° |
| 2026-04-23 11:15 | -42.85556 | 147.50506 | 1020 ft | 127 kts | 353° |
| 2026-04-23 11:15 | -42.84696 | 147.50394 | 1030 ft | 117 kts | 352° |
| 2026-04-23 11:16 | -42.83889 | 147.50272 | 1019 ft | 118 kts | 352° |
| 2026-04-23 11:16 | -42.83071 | 147.50141 | 1021 ft | 118 kts | 351° |
| 2026-04-23 11:16 | -42.82255 | 147.50001 | 1022 ft | 118 kts | 351° |
| 2026-04-23 11:16 | -42.81448 | 147.49825 | 1019 ft | 117 kts | 345° |
| 2026-04-23 11:17 | -42.80685 | 147.49446 | 1020 ft | 117 kts | 333° |
| 2026-04-23 11:17 | -42.80015 | 147.48860 | 1020 ft | 116 kts | 320° |
| 2026-04-23 11:17 | -42.79450 | 147.48080 | 1020 ft | 116 kts | 307° |
| 2026-04-23 11:17 | -42.79044 | 147.47147 | 1019 ft | 113 kts | 289° |
| 2026-04-23 11:18 | -42.79057 | 147.46076 | 1020 ft | 116 kts | 252° |
| 2026-04-23 11:18 | -42.79542 | 147.45225 | 1020 ft | 117 kts | 217° |
| 2026-04-23 11:18 | -42.80320 | 147.44927 | 1021 ft | 119 kts | 181° |
| 2026-04-23 11:18 | -42.81126 | 147.45200 | 1020 ft | 120 kts | 165° |
| 2026-04-23 11:19 | -42.81943 | 147.45364 | 1020 ft | 118 kts | 184° |
| 2026-04-23 11:19 | -42.82722 | 147.45243 | 1038 ft | 99 kts | 191° |
| 2026-04-23 11:19 | -42.83367 | 147.45238 | 1009 ft | 98 kts | 173° |
| 2026-04-23 11:19 | -42.84011 | 147.45637 | 1021 ft | 103 kts | 145° |
| 2026-04-23 11:20 | -42.84456 | 147.46386 | 1019 ft | 104 kts | 114° |
| 2026-04-23 11:20 | -42.84697 | 147.47310 | 1020 ft | 103 kts | 109° |
| 2026-04-23 11:20 | -42.84908 | 147.48249 | 1006 ft | 104 kts | 106° |
| 2026-04-23 11:20 | -42.85021 | 147.49219 | 904 ft | 105 kts | 80° |
| 2026-04-23 11:21 | -42.84636 | 147.49946 | 817 ft | 94 kts | 25° |
| 2026-04-23 11:21 | -42.84040 | 147.49910 | 741 ft | 84 kts | 327° |
| 2026-04-23 11:21 | -42.83570 | 147.49513 | 458 ft | 77 kts | 324° |
| 2026-04-23 11:21 | -42.83196 | 147.49092 | 230 ft | 61 kts | 309° |
| 2026-04-23 11:22 | -42.83017 | 147.48655 | 127 ft | 47 kts | 290° |
| 2026-04-23 11:22 | -42.82948 | 147.48259 | 91 ft | 38 kts | 295° |
| 2026-04-23 11:22 | -42.82896 | 147.48020 | 80 ft | 10 kts | 298° |
| 2026-04-23 11:22 | -42.82894 | 147.47972 | 85 ft | 5 kts | 226° |
| 2026-04-23 11:23 | -42.82901 | 147.47892 | 94 ft | 7 kts | 227° |
| 2026-04-23 11:23 | -42.82899 | 147.47799 | 93 ft | 10 kts | 228° |
| 2026-04-23 11:23 | -42.82928 | 147.47750 | 69 ft | 7 kts | 227° |
| 2026-04-23 11:23 | -42.82939 | 147.47741 | 73 ft | 2 kts | 351° |
| 2026-04-23 11:24 | -42.82936 | 147.47741 | 72 ft | 0 kts | 322° |
| 2026-04-23 11:25 | -42.82945 | 147.47736 | 71 ft | 1 kts | 333° |